Terminal Aerodrome Forecast
Issued by NWS Austin/San Antonio, TX

Home | Current Version | Previous Version | Text Only | Print | Product List | Glossary On
Versions: 1 2 3 4 5 6 7 8 9 10 11 12
000
FTUS44 KEWX 271700
TAFSAT
TAF
KSAT 271733Z 2718/2824 05010KT P6SM SKC
     FM272000 08009KT P6SM SKC
     FM280900 15004KT P6SM SCT020
     FM281200 19005KT P6SM BKN015
     FM281600 20008KT P6SM BKN035=

USA.gov is the U.S. government's official web portal to all federal, state and local government web resources and services.